sensor_id;sensor_type;location;lat;lon;timestamp;pressure;altitude;pressure_sealevel;temperature;humidity
71697;BME280;68167;59.120;37.898;2023-10-09T00:02:25;97547.59;;;3.04;82.88
71697;BME280;68167;59.120;37.898;2023-10-09T00:04:51;97573.38;;;3.12;82.29
71697;BME280;68167;59.120;37.898;2023-10-09T00:07:18;97514.75;;;2.76;82.90
71697;BME280;68167;59.120;37.898;2023-10-09T00:09:45;97606.22;;;3.24;83.28
71697;BME280;68167;59.120;37.898;2023-10-09T00:12:17;97568.38;;;3.05;82.79
71697;BME280;68167;59.120;37.898;2023-10-09T00:14:49;97560.22;;;3.02;82.97
71697;BME280;68167;59.120;37.898;2023-10-09T00:17:17;97568.91;;;3.02;82.97
71697;BME280;68167;59.120;37.898;2023-10-09T00:19:45;97589.91;;;3.12;83.13
71697;BME280;68167;59.120;37.898;2023-10-09T00:22:14;97604.38;;;3.20;83.03
71697;BME280;68167;59.120;37.898;2023-10-09T00:24:53;97615.94;;;3.24;83.34
71697;BME280;68167;59.120;37.898;2023-10-09T00:27:39;97610.97;;;3.22;83.19
71697;BME280;68167;59.120;37.898;2023-10-09T00:30:16;97559.41;;;2.86;83.04
71697;BME280;68167;59.120;37.898;2023-10-09T00:32:56;97535.75;;;2.76;82.60
71697;BME280;68167;59.120;37.898;2023-10-09T00:35:28;97564.69;;;2.96;83.69
71697;BME280;68167;59.120;37.898;2023-10-09T00:38:06;97629.31;;;3.27;83.25
71697;BME280;68167;59.120;37.898;2023-10-09T00:40:51;97538.41;;;2.81;83.06
71697;BME280;68167;59.120;37.898;2023-10-09T00:43:30;97627.75;;;3.31;82.76
71697;BME280;68167;59.120;37.898;2023-10-09T00:45:59;97628.53;;;3.32;82.93
71697;BME280;68167;59.120;37.898;2023-10-09T00:48:38;97619.09;;;3.21;82.71
71697;BME280;68167;59.120;37.898;2023-10-09T00:51:08;97595.69;;;3.09;82.47
71697;BME280;68167;59.120;37.898;2023-10-09T00:53:46;97634.59;;;3.33;82.85
71697;BME280;68167;59.120;37.898;2023-10-09T00:56:22;97633.00;;;3.26;82.20
71697;BME280;68167;59.120;37.898;2023-10-09T00:58:53;97647.72;;;3.33;82.20
71697;BME280;68167;59.120;37.898;2023-10-09T01:01:29;97614.63;;;3.16;82.77
71697;BME280;68167;59.120;37.898;2023-10-09T01:04:06;97631.16;;;3.27;83.08
71697;BME280;68167;59.120;37.898;2023-10-09T01:06:38;97657.22;;;3.39;82.31
71697;BME280;68167;59.120;37.898;2023-10-09T01:09:13;97649.84;;;3.30;82.16
71697;BME280;68167;59.120;37.898;2023-10-09T01:11:41;97575.19;;;2.86;82.53
71697;BME280;68167;59.120;37.898;2023-10-09T01:14:25;97617.78;;;3.08;81.79
71697;BME280;68167;59.120;37.898;2023-10-09T01:16:52;97654.34;;;3.25;82.20
71697;BME280;68167;59.120;37.898;2023-10-09T01:19:21;97624.09;;;3.12;82.34
71697;BME280;68167;59.120;37.898;2023-10-09T01:21:54;97654.03;;;3.31;82.50
71697;BME280;68167;59.120;37.898;2023-10-09T01:24:20;97670.09;;;3.40;82.45
71697;BME280;68167;59.120;37.898;2023-10-09T01:26:51;97661.41;;;3.35;82.38
71697;BME280;68167;59.120;37.898;2023-10-09T01:29:21;97663.53;;;3.43;82.34
71697;BME280;68167;59.120;37.898;2023-10-09T01:31:50;97633.78;;;3.27;82.82
71697;BME280;68167;59.120;37.898;2023-10-09T01:36:52;97616.47;;;3.11;82.44
71697;BME280;68167;59.120;37.898;2023-10-09T01:39:23;97629.09;;;3.19;83.52
71697;BME280;68167;59.120;37.898;2023-10-09T01:41:54;97637.50;;;3.21;82.33
71697;BME280;68167;59.120;37.898;2023-10-09T01:44:43;97636.72;;;3.15;82.91
71697;BME280;68167;59.120;37.898;2023-10-09T01:47:10;97682.72;;;3.43;82.17
71697;BME280;68167;59.120;37.898;2023-10-09T01:49:45;97688.50;;;3.40;82.39
71697;BME280;68167;59.120;37.898;2023-10-09T01:52:16;97637.75;;;3.09;83.15
71697;BME280;68167;59.120;37.898;2023-10-09T01:54:44;97690.31;;;3.35;83.05
71697;BME280;68167;59.120;37.898;2023-10-09T01:57:16;97685.84;;;3.30;83.25
71697;BME280;68167;59.120;37.898;2023-10-09T01:59:49;97656.69;;;3.11;83.08
71697;BME280;68167;59.120;37.898;2023-10-09T02:02:17;97687.97;;;3.33;83.31
71697;BME280;68167;59.120;37.898;2023-10-09T02:04:59;97671.41;;;3.17;82.58
71697;BME280;68167;59.120;37.898;2023-10-09T02:07:51;97613.53;;;2.82;82.83
71697;BME280;68167;59.120;37.898;2023-10-09T02:10:23;97697.16;;;3.20;83.51
71697;BME280;68167;59.120;37.898;2023-10-09T02:15:29;97717.94;;;3.32;83.02
71697;BME280;68167;59.120;37.898;2023-10-09T02:18:20;97672.44;;;3.01;83.00
71697;BME280;68167;59.120;37.898;2023-10-09T02:20:53;97715.03;;;3.34;83.23
71697;BME280;68167;59.120;37.898;2023-10-09T02:23:45;97710.56;;;3.29;83.85
71697;BME280;68167;59.120;37.898;2023-10-09T02:26:23;97707.94;;;3.29;83.73
71697;BME280;68167;59.120;37.898;2023-10-09T02:28:54;97698.47;;;3.18;83.30
71697;BME280;68167;59.120;37.898;2023-10-09T02:31:30;97693.75;;;3.15;83.67
71697;BME280;68167;59.120;37.898;2023-10-09T02:34:07;97729.50;;;3.31;83.66
71697;BME280;68167;59.120;37.898;2023-10-09T02:36:44;97682.41;;;2.99;84.08
71697;BME280;68167;59.120;37.898;2023-10-09T02:39:32;97645.56;;;2.79;83.26
71697;BME280;68167;59.120;37.898;2023-10-09T02:42:09;97722.69;;;3.25;83.28
71697;BME280;68167;59.120;37.898;2023-10-09T02:44:41;97726.88;;;3.21;83.79
71697;BME280;68167;59.120;37.898;2023-10-09T02:47:19;97717.66;;;3.13;83.93
71697;BME280;68167;59.120;37.898;2023-10-09T02:49:56;97721.63;;;3.21;83.52
71697;BME280;68167;59.120;37.898;2023-10-09T02:52:33;97713.44;;;3.12;83.64
71697;BME280;68167;59.120;37.898;2023-10-09T02:55:07;97647.91;;;2.70;83.83
71697;BME280;68167;59.120;37.898;2023-10-09T02:57:55;97729.00;;;3.24;84.29
71697;BME280;68167;59.120;37.898;2023-10-09T03:00:45;97707.66;;;3.05;83.71
71697;BME280;68167;59.120;37.898;2023-10-09T03:03:11;97708.16;;;2.97;84.48
71697;BME280;68167;59.120;37.898;2023-10-09T03:05:38;97737.91;;;3.23;84.31
71697;BME280;68167;59.120;37.898;2023-10-09T03:08:08;97703.16;;;3.01;84.55
71697;BME280;68167;59.120;37.898;2023-10-09T03:10:38;97731.88;;;3.17;83.89
71697;BME280;68167;59.120;37.898;2023-10-09T03:13:07;97739.75;;;3.27;84.19
71697;BME280;68167;59.120;37.898;2023-10-09T03:15:33;97750.53;;;3.31;84.88
71697;BME280;68167;59.120;37.898;2023-10-09T03:18:02;97735.56;;;3.21;83.83
71697;BME280;68167;59.120;37.898;2023-10-09T03:20:33;97716.06;;;3.07;84.54
71697;BME280;68167;59.120;37.898;2023-10-09T03:23:00;97715.00;;;3.08;84.54
71697;BME280;68167;59.120;37.898;2023-10-09T03:25:28;97753.94;;;3.31;83.95
71697;BME280;68167;59.120;37.898;2023-10-09T03:27:54;97717.13;;;3.06;84.40
71697;BME280;68167;59.120;37.898;2023-10-09T03:30:24;97736.31;;;3.17;83.86
71697;BME280;68167;59.120;37.898;2023-10-09T03:32:54;97772.91;;;3.44;84.25
71697;BME280;68167;59.120;37.898;2023-10-09T03:35:22;97773.69;;;3.44;84.11
71697;BME280;68167;59.120;37.898;2023-10-09T03:37:58;97690.03;;;3.01;84.74
71697;BME280;68167;59.120;37.898;2023-10-09T03:40:50;97695.28;;;3.01;84.03
71697;BME280;68167;59.120;37.898;2023-10-09T03:43:18;97758.69;;;3.40;83.88
71697;BME280;68167;59.120;37.898;2023-10-09T03:45:45;97771.88;;;3.50;83.97
71697;BME280;68167;59.120;37.898;2023-10-09T03:48:15;97725.03;;;3.21;83.69
71697;BME280;68167;59.120;37.898;2023-10-09T03:51:02;97780.81;;;3.54;84.08
71697;BME280;68167;59.120;37.898;2023-10-09T03:53:39;97783.19;;;3.50;84.34
71697;BME280;68167;59.120;37.898;2023-10-09T03:56:07;97743.19;;;3.33;84.62
71697;BME280;68167;59.120;37.898;2023-10-09T03:58:43;97787.66;;;3.55;84.31
71697;BME280;68167;59.120;37.898;2023-10-09T04:01:16;97775.28;;;3.50;83.92
71697;BME280;68167;59.120;37.898;2023-10-09T04:03:50;97783.97;;;3.51;83.14
71697;BME280;68167;59.120;37.898;2023-10-09T04:06:36;97784.22;;;3.39;82.86
71697;BME280;68167;59.120;37.898;2023-10-09T04:09:08;97748.69;;;3.26;83.59
71697;BME280;68167;59.120;37.898;2023-10-09T04:11:50;97774.19;;;3.31;83.91
71697;BME280;68167;59.120;37.898;2023-10-09T04:14:41;97758.94;;;3.23;82.99
71697;BME280;68167;59.120;37.898;2023-10-09T04:17:21;97741.78;;;3.00;82.95
71697;BME280;68167;59.120;37.898;2023-10-09T04:19:48;97771.56;;;3.21;83.52
71697;BME280;68167;59.120;37.898;2023-10-09T04:22:14;97780.22;;;3.26;82.79
71697;BME280;68167;59.120;37.898;2023-10-09T04:24:53;97818.66;;;3.43;82.49
71697;BME280;68167;59.120;37.898;2023-10-09T04:27:20;97819.69;;;3.37;83.07
71697;BME280;68167;59.120;37.898;2023-10-09T04:29:53;97777.56;;;3.06;82.89
71697;BME280;68167;59.120;37.898;2023-10-09T04:32:21;97829.16;;;3.33;82.34
71697;BME280;68167;59.120;37.898;2023-10-09T04:34:51;97819.94;;;3.30;82.87
71697;BME280;68167;59.120;37.898;2023-10-09T04:37:44;97757.00;;;2.93;82.48
71697;BME280;68167;59.120;37.898;2023-10-09T04:40:14;97829.44;;;3.41;82.34
71697;BME280;68167;59.120;37.898;2023-10-09T04:42:59;97833.41;;;3.44;82.67
71697;BME280;68167;59.120;37.898;2023-10-09T04:45:25;97833.38;;;3.39;82.56
71697;BME280;68167;59.120;37.898;2023-10-09T04:48:12;97788.84;;;3.07;82.12
71697;BME280;68167;59.120;37.898;2023-10-09T04:50:59;97808.88;;;3.28;83.08
71697;BME280;68167;59.120;37.898;2023-10-09T04:53:58;97859.19;;;3.52;82.79
71697;BME280;68167;59.120;37.898;2023-10-09T04:56:40;97837.88;;;3.43;81.98
71697;BME280;68167;59.120;37.898;2023-10-09T04:59:19;97789.13;;;3.10;81.84
71697;BME280;68167;59.120;37.898;2023-10-09T05:01:51;97781.72;;;2.97;81.94
71697;BME280;68167;59.120;37.898;2023-10-09T05:04:25;97837.81;;;3.28;82.29
71697;BME280;68167;59.120;37.898;2023-10-09T05:07:03;97862.31;;;3.44;81.63
71697;BME280;68167;59.120;37.898;2023-10-09T05:09:49;97857.03;;;3.39;81.37
71697;BME280;68167;59.120;37.898;2023-10-09T05:12:23;97847.56;;;3.33;81.70
71697;BME280;68167;59.120;37.898;2023-10-09T05:14:55;97873.13;;;3.47;81.84
71697;BME280;68167;59.120;37.898;2023-10-09T05:17:39;97870.75;;;3.51;81.21
71697;BME280;68167;59.120;37.898;2023-10-09T05:20:06;97864.19;;;3.48;81.11
71697;BME280;68167;59.120;37.898;2023-10-09T05:22:53;97882.88;;;3.57;82.12
71697;BME280;68167;59.120;37.898;2023-10-09T05:25:39;97839.66;;;3.33;81.81
71697;BME280;68167;59.120;37.898;2023-10-09T05:28:19;97879.47;;;3.61;82.11
71697;BME280;68167;59.120;37.898;2023-10-09T05:30:58;97890.81;;;3.67;81.32
71697;BME280;68167;59.120;37.898;2023-10-09T05:33:35;97899.75;;;3.66;82.05
71697;BME280;68167;59.120;37.898;2023-10-09T05:36:04;97893.44;;;3.62;81.56
71697;BME280;68167;59.120;37.898;2023-10-09T05:38:57;97916.06;;;3.68;81.28
71697;BME280;68167;59.120;37.898;2023-10-09T05:41:43;97888.94;;;3.57;81.50
71697;BME280;68167;59.120;37.898;2023-10-09T05:44:32;97915.28;;;3.68;80.40
71697;BME280;68167;59.120;37.898;2023-10-09T05:47:17;97923.44;;;3.66;80.45
71697;BME280;68167;59.120;37.898;2023-10-09T05:49:55;97927.63;;;3.62;80.75
71697;BME280;68167;59.120;37.898;2023-10-09T05:52:42;97913.69;;;3.61;80.31
71697;BME280;68167;59.120;37.898;2023-10-09T05:55:08;97895.75;;;3.53;79.92
71697;BME280;68167;59.120;37.898;2023-10-09T06:00:35;97933.72;;;3.73;78.61
71697;BME280;68167;59.120;37.898;2023-10-09T06:03:20;97940.81;;;3.72;78.19
71697;BME280;68167;59.120;37.898;2023-10-09T06:05:49;97959.50;;;3.76;79.04
71697;BME280;68167;59.120;37.898;2023-10-09T06:08:27;97892.22;;;3.27;78.63
71697;BME280;68167;59.120;37.898;2023-10-09T06:11:18;97965.00;;;3.69;78.67
71697;BME280;68167;59.120;37.898;2023-10-09T06:14:01;97951.56;;;3.60;78.71
71697;BME280;68167;59.120;37.898;2023-10-09T06:16:31;97912.31;;;3.49;78.73
71697;BME280;68167;59.120;37.898;2023-10-09T06:19:26;97973.75;;;3.80;77.86
71697;BME280;68167;59.120;37.898;2023-10-09T06:21:58;97976.66;;;3.83;78.24
71697;BME280;68167;59.120;37.898;2023-10-09T06:24:43;97988.75;;;3.94;78.32
71697;BME280;68167;59.120;37.898;2023-10-09T06:27:19;97952.91;;;3.68;77.53
71697;BME280;68167;59.120;37.898;2023-10-09T06:29:58;97958.13;;;3.58;76.63
71697;BME280;68167;59.120;37.898;2023-10-09T06:32:43;97934.53;;;3.26;77.00
71697;BME280;68167;59.120;37.898;2023-10-09T06:35:34;97934.81;;;3.19;76.78
71697;BME280;68167;59.120;37.898;2023-10-09T06:38:02;97971.44;;;3.41;76.95
71697;BME280;68167;59.120;37.898;2023-10-09T06:40:30;98016.06;;;3.73;76.70
71697;BME280;68167;59.120;37.898;2023-10-09T06:43:03;97980.75;;;3.59;77.06
71697;BME280;68167;59.120;37.898;2023-10-09T06:45:36;98005.53;;;3.68;77.15
71697;BME280;68167;59.120;37.898;2023-10-09T06:48:12;98023.47;;;3.81;77.04
71697;BME280;68167;59.120;37.898;2023-10-09T06:51:01;98032.72;;;3.89;76.96
71697;BME280;68167;59.120;37.898;2023-10-09T06:53:46;97940.88;;;3.30;77.12
71697;BME280;68167;59.120;37.898;2023-10-09T06:56:29;98022.88;;;3.69;77.34
71697;BME280;68167;59.120;37.898;2023-10-09T06:59:16;98026.81;;;3.67;77.91
71697;BME280;68167;59.120;37.898;2023-10-09T07:01:48;98028.63;;;3.61;77.46
71697;BME280;68167;59.120;37.898;2023-10-09T07:04:35;98021.59;;;3.72;77.06
71697;BME280;68167;59.120;37.898;2023-10-09T07:07:02;98040.56;;;3.79;77.09
71697;BME280;68167;59.120;37.898;2023-10-09T07:09:33;98037.94;;;3.79;76.47
71697;BME280;68167;59.120;37.898;2023-10-09T07:12:09;98042.94;;;3.80;75.57
71697;BME280;68167;59.120;37.898;2023-10-09T07:14:39;98043.19;;;3.79;76.38
71697;BME280;68167;59.120;37.898;2023-10-09T07:17:09;98030.31;;;3.82;76.64
71697;BME280;68167;59.120;37.898;2023-10-09T07:19:49;98053.00;;;3.98;75.91
71697;BME280;68167;59.120;37.898;2023-10-09T07:22:16;98016.38;;;3.82;76.14
71697;BME280;68167;59.120;37.898;2023-10-09T07:24:55;98030.69;;;4.11;75.89
71697;BME280;68167;59.120;37.898;2023-10-09T07:27:23;98057.41;;;4.45;75.36
71697;BME280;68167;59.120;37.898;2023-10-09T07:30:10;97995.19;;;4.24;75.08
71697;BME280;68167;59.120;37.898;2023-10-09T07:32:59;98025.25;;;4.43;74.44
71697;BME280;68167;59.120;37.898;2023-10-09T07:35:32;98057.72;;;4.74;74.56
71697;BME280;68167;59.120;37.898;2023-10-09T07:38:17;98070.41;;;4.97;75.22
71697;BME280;68167;59.120;37.898;2023-10-09T07:40:48;98035.56;;;4.75;74.89
71697;BME280;68167;59.120;37.898;2023-10-09T07:43:37;98046.91;;;4.76;75.61
71697;BME280;68167;59.120;37.898;2023-10-09T07:46:16;98072.75;;;4.94;76.00
71697;BME280;68167;59.120;37.898;2023-10-09T07:49:21;98072.50;;;5.01;75.82
71697;BME280;68167;59.120;37.898;2023-10-09T07:51:57;98077.25;;;5.09;75.92
71697;BME280;68167;59.120;37.898;2023-10-09T07:54:24;98037.69;;;4.93;76.29
71697;BME280;68167;59.120;37.898;2023-10-09T07:57:02;98069.84;;;5.26;76.17
71697;BME280;68167;59.120;37.898;2023-10-09T07:59:35;98088.06;;;5.38;74.64
71697;BME280;68167;59.120;37.898;2023-10-09T08:02:08;98049.03;;;5.04;75.20
71697;BME280;68167;59.120;37.898;2023-10-09T08:04:40;98101.50;;;5.21;75.13
71697;BME280;68167;59.120;37.898;2023-10-09T08:07:16;98067.25;;;5.06;75.74
71697;BME280;68167;59.120;37.898;2023-10-09T08:09:46;98097.81;;;5.22;76.16
71697;BME280;68167;59.120;37.898;2023-10-09T08:12:15;98116.28;;;5.37;76.23
71697;BME280;68167;59.120;37.898;2023-10-09T08:15:02;98101.78;;;5.50;76.61
71697;BME280;68167;59.120;37.898;2023-10-09T08:17:55;98061.16;;;5.36;76.65
71697;BME280;68167;59.120;37.898;2023-10-09T08:20:39;98102.81;;;5.64;75.51
71697;BME280;68167;59.120;37.898;2023-10-09T08:23:25;98112.84;;;5.67;75.93
71697;BME280;68167;59.120;37.898;2023-10-09T08:26:19;98093.34;;;5.58;75.87
71697;BME280;68167;59.120;37.898;2023-10-09T08:28:55;98104.41;;;5.60;76.19
71697;BME280;68167;59.120;37.898;2023-10-09T08:31:45;98135.81;;;5.56;76.44
71697;BME280;68167;59.120;37.898;2023-10-09T08:34:13;98123.69;;;5.40;76.31
71697;BME280;68167;59.120;37.898;2023-10-09T08:36:51;98138.97;;;5.48;77.05
71697;BME280;68167;59.120;37.898;2023-10-09T08:39:20;98085.19;;;5.09;75.88
71697;BME280;68167;59.120;37.898;2023-10-09T08:41:54;98089.91;;;5.07;76.44
71697;BME280;68167;59.120;37.898;2023-10-09T08:44:29;98115.78;;;5.15;76.78
71697;BME280;68167;59.120;37.898;2023-10-09T08:46:58;98132.91;;;5.27;76.60
71697;BME280;68167;59.120;37.898;2023-10-09T08:49:26;98098.38;;;5.09;77.38
71697;BME280;68167;59.120;37.898;2023-10-09T08:51:53;98130.28;;;5.38;77.88
71697;BME280;68167;59.120;37.898;2023-10-09T08:54:20;98136.59;;;5.37;76.73
71697;BME280;68167;59.120;37.898;2023-10-09T08:56:47;98094.91;;;5.28;76.93
71697;BME280;68167;59.120;37.898;2023-10-09T08:59:18;98109.94;;;5.28;74.96
71697;BME280;68167;59.120;37.898;2023-10-09T09:01:47;98117.34;;;5.21;75.83
71697;BME280;68167;59.120;37.898;2023-10-09T09:04:39;98155.59;;;5.23;77.27
71697;BME280;68167;59.120;37.898;2023-10-09T09:07:07;98141.84;;;4.91;76.74
71697;BME280;68167;59.120;37.898;2023-10-09T09:09:56;98117.75;;;4.57;77.40
71697;BME280;68167;59.120;37.898;2023-10-09T09:12:23;98161.81;;;4.77;76.79
71697;BME280;68167;59.120;37.898;2023-10-09T09:14:50;98129.09;;;4.52;76.87
71697;BME280;68167;59.120;37.898;2023-10-09T09:17:22;98125.69;;;4.67;77.76
71697;BME280;68167;59.120;37.898;2023-10-09T09:19:56;98106.94;;;4.58;77.77
71697;BME280;68167;59.120;37.898;2023-10-09T09:22:23;98122.28;;;4.72;77.27
71697;BME280;68167;59.120;37.898;2023-10-09T09:24:59;98148.94;;;4.90;77.87
71697;BME280;68167;59.120;37.898;2023-10-09T09:27:44;98153.44;;;4.95;77.22
71697;BME280;68167;59.120;37.898;2023-10-09T09:30:28;98134.97;;;4.95;77.06
71697;BME280;68167;59.120;37.898;2023-10-09T09:33:18;98188.56;;;5.31;77.23
71697;BME280;68167;59.120;37.898;2023-10-09T09:38:28;98144.78;;;5.10;77.45
71697;BME280;68167;59.120;37.898;2023-10-09T09:40:57;98178.53;;;5.33;76.21
71697;BME280;68167;59.120;37.898;2023-10-09T09:43:29;98137.13;;;5.13;75.63
71697;BME280;68167;59.120;37.898;2023-10-09T09:46:01;98149.00;;;5.16;76.03
71697;BME280;68167;59.120;37.898;2023-10-09T09:48:38;98166.13;;;5.23;76.25
71697;BME280;68167;59.120;37.898;2023-10-09T09:51:12;98205.22;;;5.47;76.56
71697;BME280;68167;59.120;37.898;2023-10-09T09:53:40;98198.34;;;5.46;76.67
71697;BME280;68167;59.120;37.898;2023-10-09T09:56:07;98160.88;;;5.13;77.11
71697;BME280;68167;59.120;37.898;2023-10-09T09:58:40;98187.25;;;5.39;76.77
71697;BME280;68167;59.120;37.898;2023-10-09T10:01:10;98159.53;;;5.21;77.43
71697;BME280;68167;59.120;37.898;2023-10-09T10:03:56;98204.97;;;5.58;77.41
71697;BME280;68167;59.120;37.898;2023-10-09T10:06:25;98162.97;;;5.26;76.76
71697;BME280;68167;59.120;37.898;2023-10-09T10:08:52;98173.00;;;5.29;76.70
71697;BME280;68167;59.120;37.898;2023-10-09T10:11:47;98209.19;;;5.54;77.24
71697;BME280;68167;59.120;37.898;2023-10-09T10:14:20;98178.28;;;5.29;76.56
71697;BME280;68167;59.120;37.898;2023-10-09T10:17:05;98154.28;;;5.16;76.55
71697;BME280;68167;59.120;37.898;2023-10-09T10:20:05;98210.75;;;5.45;76.80
71697;BME280;68167;59.120;37.898;2023-10-09T10:22:45;98191.47;;;5.19;75.55
71697;BME280;68167;59.120;37.898;2023-10-09T10:28:21;98215.00;;;5.56;76.55
71697;BME280;68167;59.120;37.898;2023-10-09T10:31:07;98203.63;;;5.51;75.02
71697;BME280;68167;59.120;37.898;2023-10-09T10:36:26;98190.94;;;5.22;74.43
71697;BME280;68167;59.120;37.898;2023-10-09T10:39:03;98199.13;;;5.31;75.03
71697;BME280;68167;59.120;37.898;2023-10-09T10:41:57;98209.16;;;5.39;75.49
71697;BME280;68167;59.120;37.898;2023-10-09T10:44:30;98219.16;;;5.32;75.40
71697;BME280;68167;59.120;37.898;2023-10-09T10:47:11;98241.88;;;5.38;76.40
71697;BME280;68167;59.120;37.898;2023-10-09T10:49:52;98253.72;;;5.25;76.06
71697;BME280;68167;59.120;37.898;2023-10-09T10:52:25;98232.34;;;5.12;75.65
71697;BME280;68167;59.120;37.898;2023-10-09T10:55:13;98203.00;;;4.93;75.61
71697;BME280;68167;59.120;37.898;2023-10-09T10:57:57;98240.25;;;5.22;76.05
71697;BME280;68167;59.120;37.898;2023-10-09T11:00:28;98195.94;;;5.09;76.17
71697;BME280;68167;59.120;37.898;2023-10-09T11:03:19;98193.31;;;5.14;76.25
71697;BME280;68167;59.120;37.898;2023-10-09T11:06:00;98243.47;;;5.44;76.00
71697;BME280;68167;59.120;37.898;2023-10-09T11:08:44;98247.44;;;5.47;76.54
71697;BME280;68167;59.120;37.898;2023-10-09T11:11:20;98238.44;;;5.33;75.75
71697;BME280;68167;59.120;37.898;2023-10-09T11:13:47;98217.81;;;5.09;75.21
71697;BME280;68167;59.120;37.898;2023-10-09T11:16:20;98259.28;;;5.39;76.15
71697;BME280;68167;59.120;37.898;2023-10-09T11:19:00;98224.47;;;5.37;76.10
71697;BME280;68167;59.120;37.898;2023-10-09T11:21:38;98198.03;;;5.12;75.90
71697;BME280;68167;59.120;37.898;2023-10-09T11:24:09;98224.44;;;5.27;75.74
71697;BME280;68167;59.120;37.898;2023-10-09T11:26:50;98245.56;;;5.42;75.41
71697;BME280;68167;59.120;37.898;2023-10-09T11:29:22;98272.53;;;5.70;75.82
71697;BME280;68167;59.120;37.898;2023-10-09T11:32:04;98247.69;;;5.50;75.21
71697;BME280;68167;59.120;37.898;2023-10-09T11:34:33;98280.94;;;5.46;74.90
71697;BME280;68167;59.120;37.898;2023-10-09T11:39:38;98302.25;;;5.19;74.52
71697;BME280;68167;59.120;37.898;2023-10-09T11:42:20;98230.03;;;4.68;74.86
71697;BME280;68167;59.120;37.898;2023-10-09T11:45:07;98293.91;;;4.85;74.81
71697;BME280;68167;59.120;37.898;2023-10-09T11:47:55;98284.13;;;4.81;75.94
71697;BME280;68167;59.120;37.898;2023-10-09T11:53:18;98276.44;;;4.69;76.12
71697;BME280;68167;59.120;37.898;2023-10-09T11:55:51;98314.81;;;4.97;76.58
71697;BME280;68167;59.120;37.898;2023-10-09T11:58:21;98309.81;;;5.01;76.18
71697;BME280;68167;59.120;37.898;2023-10-09T12:00:55;98251.41;;;4.72;75.91
71697;BME280;68167;59.120;37.898;2023-10-09T12:03:44;98258.84;;;4.85;75.10
71697;BME280;68167;59.120;37.898;2023-10-09T12:06:16;98254.09;;;4.82;75.12
71697;BME280;68167;59.120;37.898;2023-10-09T12:08:45;98235.88;;;4.75;75.40
71697;BME280;68167;59.120;37.898;2023-10-09T12:11:16;98300.16;;;5.32;74.59
71697;BME280;68167;59.120;37.898;2023-10-09T12:14:00;98283.28;;;5.33;74.68
71697;BME280;68167;59.120;37.898;2023-10-09T12:16:27;98267.97;;;5.35;72.83
71697;BME280;68167;59.120;37.898;2023-10-09T12:18:59;98313.50;;;5.82;73.79
71697;BME280;68167;59.120;37.898;2023-10-09T12:21:26;98294.25;;;6.17;73.58
71697;BME280;68167;59.120;37.898;2023-10-09T12:23:54;98276.03;;;6.16;72.93
71697;BME280;68167;59.120;37.898;2023-10-09T12:26:23;98279.97;;;6.18;73.32
71697;BME280;68167;59.120;37.898;2023-10-09T12:28:50;98319.09;;;6.32;72.87
71697;BME280;68167;59.120;37.898;2023-10-09T12:31:17;98267.28;;;6.00;72.51
71697;BME280;68167;59.120;37.898;2023-10-09T12:33:47;98337.84;;;6.35;73.10
71697;BME280;68167;59.120;37.898;2023-10-09T12:36:15;98302.44;;;6.31;72.30
71697;BME280;68167;59.120;37.898;2023-10-09T12:38:47;98297.94;;;6.37;71.98
71697;BME280;68167;59.120;37.898;2023-10-09T12:41:18;98339.63;;;6.75;72.60
71697;BME280;68167;59.120;37.898;2023-10-09T12:43:59;98302.69;;;6.45;72.70
71697;BME280;68167;59.120;37.898;2023-10-09T12:46:26;98316.44;;;6.37;71.05
71697;BME280;68167;59.120;37.898;2023-10-09T12:48:52;98320.66;;;6.22;71.54
71697;BME280;68167;59.120;37.898;2023-10-09T12:51:21;98345.75;;;6.25;72.28
71697;BME280;68167;59.120;37.898;2023-10-09T12:53:52;98341.53;;;6.29;72.90
71697;BME280;68167;59.120;37.898;2023-10-09T12:56:27;98358.69;;;6.62;71.70
71697;BME280;68167;59.120;37.898;2023-10-09T12:59:04;98322.53;;;6.32;70.64
71697;BME280;68167;59.120;37.898;2023-10-09T13:01:31;98314.06;;;6.20;71.72
71697;BME280;68167;59.120;37.898;2023-10-09T13:04:13;98363.75;;;6.43;72.58
71697;BME280;68167;59.120;37.898;2023-10-09T13:06:45;98364.28;;;6.40;71.33
71697;BME280;68167;59.120;37.898;2023-10-09T13:09:13;98369.28;;;6.37;70.79
71697;BME280;68167;59.120;37.898;2023-10-09T13:11:41;98356.84;;;6.22;71.00
71697;BME280;68167;59.120;37.898;2023-10-09T13:14:11;98347.06;;;5.97;70.36
71697;BME280;68167;59.120;37.898;2023-10-09T13:16:43;98371.09;;;5.95;70.15
71697;BME280;68167;59.120;37.898;2023-10-09T13:19:10;98334.00;;;5.50;69.49
71697;BME280;68167;59.120;37.898;2023-10-09T13:21:37;98381.03;;;5.63;69.99
71697;BME280;68167;59.120;37.898;2023-10-09T13:24:06;98380.69;;;5.44;70.67
71697;BME280;68167;59.120;37.898;2023-10-09T13:26:40;98387.25;;;5.37;71.60
71697;BME280;68167;59.120;37.898;2023-10-09T13:29:07;98371.59;;;5.15;71.32
71697;BME280;68167;59.120;37.898;2023-10-09T13:31:38;98342.22;;;4.96;70.97
71697;BME280;68167;59.120;37.898;2023-10-09T13:34:06;98396.38;;;5.14;70.78
71697;BME280;68167;59.120;37.898;2023-10-09T13:36:36;98369.38;;;4.96;70.83
71697;BME280;68167;59.120;37.898;2023-10-09T13:39:04;98378.88;;;4.97;71.39
71697;BME280;68167;59.120;37.898;2023-10-09T13:41:56;98388.16;;;5.05;71.43
71697;BME280;68167;59.120;37.898;2023-10-09T13:44:31;98399.00;;;5.09;71.30
71697;BME280;68167;59.120;37.898;2023-10-09T13:47:03;98408.75;;;5.08;72.59
71697;BME280;68167;59.120;37.898;2023-10-09T13:49:35;98411.66;;;5.12;73.27
71697;BME280;68167;59.120;37.898;2023-10-09T13:52:04;98409.25;;;5.05;72.83
71697;BME280;68167;59.120;37.898;2023-10-09T13:54:33;98420.88;;;5.09;73.27
71697;BME280;68167;59.120;37.898;2023-10-09T13:57:00;98354.91;;;4.62;72.96
71697;BME280;68167;59.120;37.898;2023-10-09T13:59:31;98434.06;;;5.09;73.79
71697;BME280;68167;59.120;37.898;2023-10-09T14:02:03;98394.34;;;4.84;73.09
71697;BME280;68167;59.120;37.898;2023-10-09T14:04:43;98390.34;;;4.76;74.01
71697;BME280;68167;59.120;37.898;2023-10-09T14:07:10;98443.25;;;5.02;73.74